createdAt,value
2022-08-03T00:00:21.131Z,7.65
2022-08-03T00:02:48.989Z,8.00
2022-08-03T00:05:15.522Z,7.80
2022-08-03T00:07:42.076Z,6.60
2022-08-03T00:10:09.104Z,6.13
2022-08-03T00:12:36.483Z,5.75
2022-08-03T00:15:03.916Z,4.80
2022-08-03T00:17:52.518Z,6.63
2022-08-03T00:20:21.562Z,3.50
2022-08-03T00:22:48.633Z,3.45
2022-08-03T00:25:15.464Z,3.70
2022-08-03T00:27:42.000Z,2.92
2022-08-03T00:30:08.858Z,2.40
2022-08-03T00:32:35.433Z,2.63
2022-08-03T00:35:05.694Z,5.82
2022-08-03T00:37:41.039Z,3.20
2022-08-03T00:40:12.781Z,2.67
2022-08-03T00:42:50.611Z,2.40
2022-08-03T00:45:18.426Z,2.63
2022-08-03T00:47:45.485Z,3.08
2022-08-03T00:50:12.859Z,2.33
2022-08-03T00:52:39.935Z,2.33
2022-08-03T00:55:06.696Z,2.72
2022-08-03T00:57:33.807Z,2.97
2022-08-03T01:00:00.901Z,2.78
2022-08-03T01:02:28.754Z,2.47
2022-08-03T01:04:56.163Z,2.78
2022-08-03T01:07:42.640Z,2.67
2022-08-03T01:10:50.717Z,2.47
2022-08-03T01:14:18.537Z,2.95
2022-08-03T01:17:08.263Z,3.10
2022-08-03T01:20:10.286Z,2.60
2022-08-03T01:22:58.139Z,2.60
2022-08-03T01:25:54.506Z,4.97
2022-08-03T01:28:58.782Z,3.33
2022-08-03T01:32:59.513Z,2.38
2022-08-03T01:34:50.667Z,2.25
2022-08-03T01:37:24.814Z,2.63
2022-08-03T01:39:53.823Z,5.22
2022-08-03T01:42:25.353Z,2.88
2022-08-03T01:44:53.143Z,2.00
2022-08-03T01:47:22.458Z,2.55
2022-08-03T01:49:51.186Z,2.22
2022-08-03T01:52:20.208Z,2.25
2022-08-03T01:54:51.099Z,2.88
2022-08-03T01:57:19.968Z,4.10
2022-08-03T01:59:49.183Z,1.88
2022-08-03T02:02:34.163Z,1.70
2022-08-03T02:05:03.271Z,2.35
2022-08-03T02:07:31.562Z,3.78
2022-08-03T02:10:00.231Z,1.58
2022-08-03T02:12:28.836Z,2.95
2022-08-03T02:14:57.871Z,2.13
2022-08-03T02:17:39.112Z,2.70
2022-08-03T02:20:09.830Z,2.65
2022-08-03T02:22:40.505Z,2.30
2022-08-03T02:25:12.113Z,2.17
2022-08-03T02:27:44.115Z,1.60
2022-08-03T02:30:13.646Z,2.00
2022-08-03T02:32:42.610Z,5.53
2022-08-03T02:35:15.351Z,6.13
2022-08-03T02:37:49.870Z,4.22
2022-08-03T02:40:19.795Z,2.03
2022-08-03T02:42:49.542Z,2.38
2022-08-03T02:45:18.247Z,2.38
2022-08-03T02:47:53.447Z,2.13
2022-08-03T02:50:24.514Z,2.53
2022-08-03T02:52:53.211Z,2.28
2022-08-03T02:55:21.364Z,2.33
2022-08-03T02:57:48.698Z,2.42
2022-08-03T03:00:27.204Z,2.05
2022-08-03T03:02:57.638Z,2.47
2022-08-03T03:05:54.318Z,2.45
2022-08-03T03:08:17.705Z,2.55
2022-08-03T03:10:46.593Z,2.75
2022-08-03T03:13:15.302Z,2.53
2022-08-03T03:15:43.517Z,2.05
2022-08-03T03:18:10.773Z,2.80
2022-08-03T03:20:40.903Z,3.15
2022-08-03T03:23:09.066Z,2.60
2022-08-03T03:25:36.347Z,2.40
2022-08-03T03:28:04.112Z,9.77
2022-08-03T03:30:33.616Z,7.97
2022-08-03T03:33:00.671Z,3.13
2022-08-03T03:35:27.964Z,2.55
2022-08-03T03:37:55.210Z,2.47
2022-08-03T03:40:22.624Z,3.03
2022-08-03T03:42:50.238Z,2.40
2022-08-03T03:45:17.878Z,2.50
2022-08-03T03:47:44.478Z,2.38
2022-08-03T03:50:11.638Z,3.60
2022-08-03T03:52:38.429Z,4.95
2022-08-03T03:55:05.420Z,4.90
2022-08-03T03:57:31.953Z,7.30
2022-08-03T03:59:58.475Z,3.53
2022-08-03T04:02:25.158Z,8.35
2022-08-03T04:05:10.401Z,6.40
2022-08-03T04:08:08.677Z,4.05
2022-08-03T04:10:55.523Z,8.30
2022-08-03T04:13:22.940Z,3.92
2022-08-03T04:15:50.795Z,4.43
2022-08-03T04:18:19.107Z,5.45
2022-08-03T04:20:48.843Z,2.78
2022-08-03T04:23:19.504Z,3.90
2022-08-03T04:25:48.788Z,3.28
2022-08-03T04:28:30.502Z,3.17
2022-08-03T04:30:59.721Z,4.43
2022-08-03T04:33:29.546Z,3.65
2022-08-03T04:36:02.873Z,4.82
2022-08-03T04:38:32.935Z,4.00
2022-08-03T04:41:01.072Z,4.18
2022-08-03T04:43:27.969Z,5.25
2022-08-03T04:45:55.797Z,4.07
2022-08-03T04:48:22.683Z,7.93
2022-08-03T04:50:49.338Z,4.80
2022-08-03T04:53:16.566Z,5.47
2022-08-03T04:55:43.206Z,4.70
2022-08-03T04:58:09.891Z,4.25
2022-08-03T05:00:36.509Z,6.10
2022-08-03T05:03:03.107Z,7.22
2022-08-03T05:05:40.665Z,5.40
2022-08-03T05:08:16.363Z,4.97
2022-08-03T05:10:47.564Z,4.43
2022-08-03T05:13:14.575Z,5.38
2022-08-03T05:15:43.160Z,5.32
2022-08-03T05:18:13.945Z,4.95
2022-08-03T05:20:41.132Z,5.05
2022-08-03T05:23:07.763Z,4.75
2022-08-03T05:25:34.387Z,4.85
2022-08-03T05:28:01.380Z,5.32
2022-08-03T05:30:34.028Z,5.05
2022-08-03T05:33:02.591Z,6.22
2022-08-03T05:35:55.908Z,6.10
2022-08-03T05:38:20.869Z,5.75
2022-08-03T05:40:56.812Z,5.97
2022-08-03T05:43:24.840Z,7.10
2022-08-03T05:46:12.389Z,6.13
2022-08-03T05:48:38.031Z,5.20
2022-08-03T05:51:06.668Z,7.30
2022-08-03T05:53:34.096Z,7.13
2022-08-03T05:56:02.679Z,4.97
2022-08-03T05:58:42.008Z,7.95
2022-08-03T06:01:08.683Z,5.47
2022-08-03T06:03:35.232Z,5.40
2022-08-03T06:06:01.839Z,5.97
2022-08-03T06:08:28.438Z,5.38
2022-08-03T06:10:55.017Z,8.40
2022-08-03T06:13:22.062Z,5.53
2022-08-03T06:15:48.600Z,6.22
2022-08-03T06:18:15.332Z,6.00
2022-08-03T06:20:41.864Z,7.00
2022-08-03T06:23:15.934Z,8.15
2022-08-03T06:25:44.498Z,9.05
2022-08-03T06:28:35.417Z,8.68
2022-08-03T06:30:59.042Z,10.80
2022-08-03T06:33:26.538Z,10.68
2022-08-03T06:36:13.168Z,9.88
2022-08-03T06:38:39.736Z,9.27
2022-08-03T06:41:06.237Z,11.15
2022-08-03T06:43:35.982Z,10.50
2022-08-03T06:46:02.577Z,11.02
2022-08-03T06:48:29.911Z,10.35
2022-08-03T06:50:56.513Z,10.95
2022-08-03T06:53:23.146Z,10.82
2022-08-03T06:55:54.262Z,10.52
2022-08-03T06:58:21.373Z,12.13
2022-08-03T07:00:48.040Z,13.40
2022-08-03T07:03:15.172Z,15.48
2022-08-03T07:05:43.005Z,17.70
2022-08-03T07:08:10.171Z,19.67
2022-08-03T07:10:37.141Z,19.38
2022-08-03T07:13:04.325Z,20.10
2022-08-03T07:15:55.374Z,23.20
2022-08-03T07:18:17.658Z,25.08
2022-08-03T07:20:54.854Z,26.15
2022-08-03T07:23:21.386Z,28.50
2022-08-03T07:25:47.953Z,28.92
2022-08-03T07:28:15.372Z,28.10
2022-08-03T07:30:42.029Z,25.80
2022-08-03T07:33:08.617Z,29.75
2022-08-03T07:35:35.141Z,23.52
2022-08-03T07:38:01.698Z,21.50
2022-08-03T07:40:31.698Z,23.08
2022-08-03T07:42:58.973Z,25.55
2022-08-03T07:45:26.643Z,32.60
2022-08-03T07:47:54.107Z,33.13
2022-08-03T07:50:21.906Z,31.85
2022-08-03T07:52:49.757Z,36.97
2022-08-03T07:55:18.489Z,30.75
2022-08-03T07:57:45.075Z,42.78
2022-08-03T08:00:19.236Z,35.33
2022-08-03T08:02:46.127Z,44.15
2022-08-03T08:05:13.009Z,39.50
2022-08-03T08:07:39.783Z,49.70
2022-08-03T08:10:08.371Z,59.47
2022-08-03T08:12:35.042Z,54.47
2022-08-03T08:15:02.338Z,53.80
2022-08-03T08:17:28.909Z,68.60
2022-08-03T08:19:55.470Z,66.15
2022-08-03T08:22:29.699Z,101.05
2022-08-03T08:24:57.933Z,72.30
2022-08-03T08:27:24.433Z,86.72
2022-08-03T08:29:54.174Z,95.53
2022-08-03T08:32:23.388Z,111.68
2022-08-03T08:34:50.122Z,95.03
2022-08-03T08:37:16.773Z,99.78
2022-08-03T08:39:43.302Z,59.60
2022-08-03T08:42:10.287Z,60.13
2022-08-03T08:44:36.959Z,67.82
2022-08-03T08:47:04.606Z,73.00
2022-08-03T08:49:35.841Z,98.47
2022-08-03T08:52:05.130Z,83.38
2022-08-03T08:54:56.317Z,105.95
2022-08-03T08:57:42.323Z,105.45
2022-08-03T09:00:14.042Z,94.18
2022-08-03T09:02:44.408Z,110.07
2022-08-03T09:05:16.157Z,154.90
2022-08-03T09:07:43.715Z,141.95
2022-08-03T09:10:13.490Z,147.35
2022-08-03T09:12:53.514Z,154.90
2022-08-03T09:15:22.076Z,155.02
2022-08-03T09:17:51.235Z,196.77
2022-08-03T09:20:20.020Z,136.55
2022-08-03T09:23:43.012Z,196.23
2022-08-03T09:25:59.870Z,136.27
2022-08-03T09:29:01.275Z,156.65
2022-08-03T09:31:30.136Z,153.40
2022-08-03T09:34:01.018Z,170.65
2022-08-03T09:36:46.321Z,189.45
2022-08-03T09:39:16.451Z,143.27
2022-08-03T09:41:45.749Z,165.95
2022-08-03T09:44:24.596Z,183.85
2022-08-03T09:46:56.186Z,174.52
2022-08-03T09:49:23.906Z,194.77
2022-08-03T09:52:30.310Z,173.75
2022-08-03T09:54:37.492Z,189.15
2022-08-03T09:57:04.608Z,192.50
2022-08-03T09:59:33.334Z,203.73
2022-08-03T10:02:00.639Z,227.05
2022-08-03T10:04:27.466Z,250.05
2022-08-03T10:07:06.147Z,221.60
2022-08-03T10:09:33.233Z,265.70
2022-08-03T10:12:10.887Z,239.45
2022-08-03T10:14:39.518Z,250.68
2022-08-03T10:17:06.369Z,223.63
2022-08-03T10:19:33.805Z,206.10
2022-08-03T10:22:10.475Z,232.77
2022-08-03T10:24:39.333Z,250.50
2022-08-03T10:27:07.970Z,217.63
2022-08-03T10:29:39.747Z,218.35
2022-08-03T10:32:22.183Z,239.25
2022-08-03T10:34:51.327Z,267.15
2022-08-03T10:37:30.471Z,259.33
2022-08-03T10:39:59.631Z,176.95
2022-08-03T10:42:28.284Z,200.07
2022-08-03T10:45:18.545Z,162.93
2022-08-03T10:47:47.525Z,168.95
2022-08-03T10:50:14.272Z,177.25
2022-08-03T10:53:08.667Z,172.18
2022-08-03T10:55:56.705Z,172.65
2022-08-03T10:58:37.185Z,183.05
2022-08-03T11:01:06.083Z,169.45
2022-08-03T11:03:33.503Z,176.80
2022-08-03T11:06:19.121Z,229.02
2022-08-03T11:08:50.243Z,195.77
2022-08-03T11:11:19.803Z,193.70
2022-08-03T11:13:59.367Z,188.45
2022-08-03T11:16:27.667Z,176.65
2022-08-03T11:19:03.892Z,192.15
2022-08-03T11:21:48.951Z,203.13
2022-08-03T11:24:37.422Z,180.60
2022-08-03T11:27:19.242Z,189.70
2022-08-03T11:30:07.426Z,196.05
2022-08-03T11:32:40.222Z,158.65
2022-08-03T11:35:26.257Z,146.93
2022-08-03T11:38:03.251Z,100.20
2022-08-03T11:40:44.284Z,100.72
2022-08-03T11:43:31.601Z,81.63
2022-08-03T11:46:06.954Z,62.60
2022-08-03T11:48:50.856Z,70.30
2022-08-03T11:51:25.610Z,72.15
2022-08-03T11:53:54.183Z,68.60
2022-08-03T11:56:20.897Z,98.75
2022-08-03T11:58:58.211Z,123.85
2022-08-03T12:01:35.633Z,82.20
2022-08-03T12:04:06.171Z,76.22
2022-08-03T12:06:56.536Z,102.57
2022-08-03T12:09:23.138Z,103.45
2022-08-03T12:11:59.644Z,84.30
2022-08-03T12:14:48.861Z,79.30
2022-08-03T12:17:16.574Z,97.28
2022-08-03T12:19:44.088Z,79.25
2022-08-03T12:22:10.694Z,84.00
2022-08-03T12:24:46.909Z,63.97
2022-08-03T12:27:24.071Z,48.60
2022-08-03T12:29:59.271Z,42.58
2022-08-03T12:32:27.275Z,44.10
2022-08-03T12:34:55.454Z,54.03
2022-08-03T12:37:23.569Z,42.38
2022-08-03T12:40:02.743Z,40.58
2022-08-03T12:42:36.807Z,41.17
2022-08-03T12:45:20.378Z,41.80
2022-08-03T12:50:34.000Z,42.65
2022-08-03T12:53:02.886Z,42.50
2022-08-03T12:55:57.004Z,41.80
2022-08-03T12:58:34.124Z,42.15
2022-08-03T13:01:05.072Z,41.70
2022-08-03T13:03:45.900Z,45.17
2022-08-03T13:06:19.278Z,46.40
2022-08-03T13:08:47.952Z,41.58
2022-08-03T13:11:55.611Z,52.55
2022-08-03T13:14:20.575Z,44.03
2022-08-03T13:16:50.945Z,41.85
2022-08-03T13:19:17.620Z,43.20
2022-08-03T13:22:03.505Z,36.33
2022-08-03T13:24:32.840Z,33.67
2022-08-03T13:27:00.765Z,36.78
2022-08-03T13:29:47.434Z,33.85
2022-08-03T13:32:13.947Z,33.70
2022-08-03T13:34:40.537Z,33.22
2022-08-03T13:37:09.351Z,32.38
2022-08-03T13:39:57.914Z,36.15
2022-08-03T13:42:25.144Z,34.40
2022-08-03T13:44:51.831Z,32.95
2022-08-03T13:47:19.466Z,35.35
2022-08-03T13:49:56.958Z,42.38
2022-08-03T13:52:35.827Z,44.25
2022-08-03T13:55:04.871Z,40.13
2022-08-03T13:58:19.020Z,42.17
2022-08-03T14:00:28.071Z,42.58
2022-08-03T14:03:16.595Z,27.55
2022-08-03T14:05:44.103Z,35.42
2022-08-03T14:08:11.570Z,22.15
2022-08-03T14:10:43.238Z,22.58
2022-08-03T14:13:12.044Z,20.95
2022-08-03T14:15:38.942Z,20.83
2022-08-03T14:18:15.424Z,20.65
2022-08-03T14:20:48.951Z,20.83
2022-08-03T14:23:17.596Z,21.42
2022-08-03T14:25:52.425Z,22.83
2022-08-03T14:28:23.028Z,20.90
2022-08-03T14:30:51.853Z,25.08
2022-08-03T14:33:18.541Z,23.75
2022-08-03T14:35:45.098Z,24.85
2022-08-03T14:38:11.598Z,25.85
2022-08-03T14:40:38.211Z,26.35
2022-08-03T14:43:04.757Z,26.85
2022-08-03T14:45:31.312Z,25.98
2022-08-03T14:50:26.579Z,25.77
2022-08-03T14:50:51.098Z,23.48
2022-08-03T14:53:19.234Z,22.60
2022-08-03T14:55:50.774Z,19.90
2022-08-03T14:58:22.760Z,20.48
2022-08-03T15:00:51.836Z,21.35
2022-08-03T15:03:23.049Z,18.17
2022-08-03T15:05:51.431Z,20.40
2022-08-03T15:08:17.977Z,18.38
2022-08-03T15:10:45.564Z,18.52
2022-08-03T15:13:13.268Z,17.83
2022-08-03T15:15:40.690Z,18.85
2022-08-03T15:18:07.795Z,17.52
2022-08-03T15:20:50.165Z,20.45
2022-08-03T15:23:18.275Z,17.58
2022-08-03T15:26:31.704Z,19.52
2022-08-03T15:28:33.204Z,18.17
2022-08-03T15:31:00.945Z,17.42
2022-08-03T15:33:27.987Z,20.33
2022-08-03T15:35:54.551Z,19.10
2022-08-03T15:38:25.750Z,19.30
2022-08-03T15:40:58.938Z,18.13
2022-08-03T15:43:25.512Z,18.92
2022-08-03T15:46:19.181Z,19.63
2022-08-03T15:48:39.199Z,19.42
2022-08-03T15:51:06.217Z,19.88
2022-08-03T15:53:33.649Z,19.63
2022-08-03T15:56:00.894Z,19.80
2022-08-03T15:59:04.203Z,19.13
2022-08-03T16:01:19.869Z,19.85
2022-08-03T16:03:46.891Z,18.48
2022-08-03T16:06:13.908Z,18.92
2022-08-03T16:08:40.470Z,19.65
2022-08-03T16:11:07.075Z,19.65
2022-08-03T16:14:13.691Z,22.13
2022-08-03T16:16:20.078Z,20.10
2022-08-03T16:18:46.671Z,19.55
2022-08-03T16:21:17.787Z,18.42
2022-08-03T16:23:47.347Z,19.45
2022-08-03T16:26:14.348Z,19.05
2022-08-03T16:28:41.428Z,20.08
2022-08-03T16:31:09.170Z,18.67
2022-08-03T16:33:36.077Z,19.73
2022-08-03T16:36:03.240Z,18.77
2022-08-03T16:38:30.537Z,18.92
2022-08-03T16:40:57.130Z,19.70
2022-08-03T16:43:24.680Z,19.25
2022-08-03T16:45:51.416Z,19.55
2022-08-03T16:48:18.997Z,19.92
2022-08-03T16:50:46.193Z,19.38
2022-08-03T16:53:16.353Z,20.77
2022-08-03T16:55:51.846Z,19.33
2022-08-03T16:58:34.470Z,21.52
2022-08-03T17:01:21.041Z,20.85
2022-08-03T17:04:01.165Z,23.65
2022-08-03T17:06:34.151Z,21.27
2022-08-03T17:09:03.243Z,23.13
2022-08-03T17:11:32.125Z,25.27
2022-08-03T17:14:00.114Z,25.05
2022-08-03T17:16:27.055Z,25.13
2022-08-03T17:19:01.961Z,27.20
2022-08-03T17:21:32.425Z,26.02
2022-08-03T17:24:12.154Z,24.75
2022-08-03T17:26:45.770Z,23.90
2022-08-03T17:29:23.108Z,21.40
2022-08-03T17:31:53.035Z,21.80
2022-08-03T17:34:20.321Z,24.80
2022-08-03T17:37:03.796Z,23.70
2022-08-03T17:39:57.021Z,28.90
2022-08-03T17:42:29.401Z,34.60
2022-08-03T17:45:02.458Z,48.53
2022-08-03T17:47:42.799Z,41.85
2022-08-03T17:50:24.127Z,71.28
2022-08-03T17:52:57.777Z,66.10
2022-08-03T17:55:56.043Z,74.40
2022-08-03T17:58:30.748Z,95.22
2022-08-03T18:02:00.825Z,98.00
2022-08-03T18:04:10.904Z,101.72
2022-08-03T18:06:56.458Z,113.35
2022-08-03T18:10:03.806Z,105.70
2022-08-03T18:12:23.762Z,113.95
2022-08-03T18:15:01.090Z,119.78
2022-08-03T18:17:55.568Z,146.65
2022-08-03T18:20:34.731Z,163.73
2022-08-03T18:23:05.898Z,202.32
2022-08-03T18:25:45.479Z,228.18
2022-08-03T18:28:16.442Z,245.25
2022-08-03T18:30:53.551Z,348.73
2022-08-03T18:34:16.802Z,379.98
2022-08-03T18:36:09.750Z,420.20
2022-08-03T18:38:42.200Z,400.67
2022-08-03T18:41:19.643Z,387.73
2022-08-03T18:44:06.760Z,369.30
2022-08-03T18:46:41.685Z,371.00
2022-08-03T18:49:15.207Z,420.33
2022-08-03T18:51:47.058Z,316.92
2022-08-03T18:54:57.256Z,318.27
2022-08-03T18:57:02.004Z,346.85
2022-08-03T18:59:58.807Z,346.27
2022-08-03T19:02:26.542Z,370.23
2022-08-03T19:04:54.650Z,416.70
2022-08-03T19:07:27.317Z,404.58
2022-08-03T19:09:59.759Z,434.73
2022-08-03T19:12:31.144Z,414.13
2022-08-03T19:15:13.533Z,466.30
2022-08-03T19:17:42.626Z,426.98
2022-08-03T19:20:22.437Z,459.25
2022-08-03T19:22:53.067Z,490.10
2022-08-03T19:25:19.735Z,504.48
2022-08-03T19:28:04.291Z,407.75
2022-08-03T19:30:39.962Z,498.23
2022-08-03T19:33:13.119Z,482.52
2022-08-03T19:35:46.667Z,433.20
2022-08-03T19:38:28.311Z,430.55
2022-08-03T19:40:58.258Z,454.30
2022-08-03T19:43:33.126Z,451.00
2022-08-03T19:46:15.560Z,403.83
2022-08-03T19:48:54.774Z,377.25
2022-08-03T19:51:24.540Z,333.55
2022-08-03T19:54:14.640Z,376.98
2022-08-03T19:56:46.307Z,363.63
2022-08-03T19:59:15.851Z,367.23
2022-08-03T20:01:50.277Z,342.77
2022-08-03T20:04:17.224Z,339.48
2022-08-03T20:06:45.178Z,384.73
2022-08-03T20:09:12.734Z,363.25
2022-08-03T20:11:43.777Z,355.20
2022-08-03T20:14:12.088Z,368.75
2022-08-03T20:16:51.718Z,347.88
2022-08-03T20:19:18.474Z,338.52
2022-08-03T20:21:48.703Z,351.58
2022-08-03T20:24:36.736Z,361.63
2022-08-03T20:27:08.630Z,358.27
2022-08-03T20:30:05.199Z,341.00
2022-08-03T20:32:27.993Z,306.75
2022-08-03T20:34:54.523Z,301.60
2022-08-03T20:37:22.175Z,305.13
2022-08-03T20:39:49.781Z,299.60
2022-08-03T20:42:21.547Z,276.88
2022-08-03T20:45:04.670Z,275.98
2022-08-03T20:47:35.583Z,246.82
2022-08-03T20:50:04.176Z,208.95
2022-08-03T20:52:34.400Z,214.23
2022-08-03T20:55:13.022Z,204.63
2022-08-03T20:57:43.226Z,195.73
2022-08-03T21:00:17.789Z,171.55
2022-08-03T21:02:44.427Z,173.88
2022-08-03T21:05:11.401Z,158.73
2022-08-03T21:07:45.991Z,154.38
2022-08-03T21:10:30.202Z,125.05
2022-08-03T21:13:16.256Z,131.32
2022-08-03T21:16:12.959Z,101.78
2022-08-03T21:18:58.654Z,102.45
2022-08-03T21:21:28.329Z,103.18
2022-08-03T21:23:55.500Z,104.70
2022-08-03T21:26:24.635Z,110.63
2022-08-03T21:28:54.199Z,85.18
2022-08-03T21:31:25.080Z,97.40
2022-08-03T21:34:03.386Z,81.38
2022-08-03T21:36:33.711Z,94.20
2022-08-03T21:39:03.011Z,80.70
2022-08-03T21:41:31.829Z,81.30
2022-08-03T21:43:59.646Z,78.57
2022-08-03T21:46:29.359Z,91.25
2022-08-03T21:50:04.478Z,76.45
2022-08-03T21:51:50.490Z,74.22
2022-08-03T21:54:20.057Z,74.32
2022-08-03T21:56:50.983Z,70.07
2022-08-03T21:59:20.357Z,65.03
2022-08-03T22:01:51.529Z,58.80
2022-08-03T22:04:50.801Z,49.63
2022-08-03T22:07:09.240Z,47.00
2022-08-03T22:09:36.776Z,40.88
2022-08-03T22:12:04.297Z,42.10
2022-08-03T22:14:33.154Z,31.05
2022-08-03T22:17:06.466Z,30.13
2022-08-03T22:22:04.595Z,23.33
2022-08-03T22:24:32.684Z,21.52
2022-08-03T22:27:19.386Z,22.45
2022-08-03T22:29:46.236Z,21.70
2022-08-03T22:32:13.879Z,18.98
2022-08-03T22:34:42.810Z,18.98
2022-08-03T22:37:10.528Z,15.75
2022-08-03T22:39:39.427Z,17.63
2022-08-03T22:42:06.348Z,18.08
2022-08-03T22:44:35.115Z,16.83
2022-08-03T22:47:03.622Z,19.85
2022-08-03T22:49:31.815Z,21.27
2022-08-03T22:51:59.232Z,21.17
2022-08-03T22:54:25.743Z,14.80
2022-08-03T22:56:52.346Z,15.02
2022-08-03T22:59:39.968Z,16.10
2022-08-03T23:02:20.073Z,13.98
2022-08-03T23:05:02.858Z,13.68
2022-08-03T23:07:35.043Z,15.93
2022-08-03T23:10:06.371Z,15.18
2022-08-03T23:12:36.641Z,16.13
2022-08-03T23:15:08.293Z,17.10
2022-08-03T23:17:57.337Z,15.23
2022-08-03T23:20:26.998Z,13.05
2022-08-03T23:22:57.587Z,16.67
2022-08-03T23:25:25.256Z,17.30
2022-08-03T23:28:05.593Z,12.55
2022-08-03T23:30:36.216Z,12.98
2022-08-03T23:33:04.061Z,12.75
2022-08-03T23:36:17.238Z,11.20
2022-08-03T23:38:36.691Z,10.15
2022-08-03T23:41:04.895Z,9.25
2022-08-03T23:43:51.420Z,10.05
2022-08-03T23:46:23.990Z,8.70
2022-08-03T23:48:51.115Z,8.43
2022-08-03T23:51:40.699Z,6.43
2022-08-03T23:54:18.835Z,7.70
2022-08-03T23:56:59.137Z,6.65
2022-08-03T23:59:55.649Z,7.57
